Time;durP1;ratioP1;P1;durP2;ratioP2;P2;SDS_P1;SDS_P2;PMS_P1;PMS_P2;Temp;Humidity;BMP_temperature;BMP_pressure;BME280_temperature;BME280_humidity;BME280_pressure;Samples;Min_cycle;Max_cycle;Signal;HPM_P1;HPM_P2
2022/12/14 00:01:40;;;;;;;10.20;5.93;;;19.80;34.80;;;;;;5070651;28;20063;-66
2022/12/14 00:04:10;;;;;;;7.80;5.35;;;19.80;34.80;;;;;;5050905;28;20044;-65
2022/12/14 00:06:38;;;;;;;7.22;5.43;;;19.80;34.80;;;;;;5071408;28;20065;-65
2022/12/14 00:09:05;;;;;;;7.35;5.40;;;19.80;34.80;;;;;;5072391;28;20060;-65
2022/12/14 00:11:33;;;;;;;7.55;5.82;;;19.80;34.70;;;;;;5071959;28;20440;-65
2022/12/14 00:14:02;;;;;;;7.70;5.78;;;19.80;34.80;;;;;;5071436;28;20072;-66
2022/12/14 00:16:31;;;;;;;7.50;5.65;;;19.80;34.80;;;;;;5071770;28;20044;-65
2022/12/14 00:19:00;;;;;;;8.45;5.72;;;19.80;34.70;;;;;;5069782;28;20058;-65
2022/12/14 00:21:28;;;;;;;8.88;6.07;;;19.80;34.70;;;;;;5051311;28;20040;-65
2022/12/14 00:23:58;;;;;;;8.35;5.55;;;19.80;34.70;;;;;;5071027;28;20049;-65
2022/12/14 00:26:28;;;;;;;8.05;5.80;;;19.80;34.70;;;;;;5070528;28;20051;-65
2022/12/14 00:28:56;;;;;;;6.90;5.15;;;19.80;34.70;;;;;;5071882;28;20274;-65
2022/12/14 00:31:24;;;;;;;7.72;5.43;;;19.70;34.60;;;;;;5071326;28;20484;-65
2022/12/14 00:33:52;;;;;;;6.72;5.10;;;19.80;34.70;;;;;;5069263;28;20048;-66
2022/12/14 00:36:19;;;;;;;6.03;4.85;;;19.70;34.70;;;;;;5068618;28;20077;-65
2022/12/14 00:38:46;;;;;;;7.28;5.22;;;19.70;34.70;;;;;;5070095;28;20497;-65
2022/12/14 00:41:14;;;;;;;8.10;5.47;;;19.70;34.70;;;;;;5070157;28;20603;-65
2022/12/14 00:43:41;;;;;;;8.10;5.88;;;19.70;34.70;;;;;;5053248;28;20409;-65
2022/12/14 00:46:08;;;;;;;8.05;5.10;;;19.70;34.70;;;;;;5071583;28;20052;-65
2022/12/14 00:48:35;;;;;;;7.72;5.43;;;19.70;34.70;;;;;;5070593;28;20154;-65
2022/12/14 00:51:03;;;;;;;6.85;5.30;;;19.70;34.70;;;;;;5071132;28;20048;-65
2022/12/14 00:53:30;;;;;;;6.97;5.38;;;19.70;34.70;;;;;;5071141;28;20468;-65
2022/12/14 00:56:05;;;;;;;6.30;5.35;;;19.70;34.70;;;;;;5070639;28;20048;-65
2022/12/14 00:58:32;;;;;;;6.35;4.70;;;19.70;34.70;;;;;;5070261;28;20128;-65
2022/12/14 01:01:11;;;;;;;6.72;5.13;;;19.70;34.70;;;;;;5069814;28;20127;-66
2022/12/14 01:03:39;;;;;;;6.25;5.15;;;19.70;34.70;;;;;;5053715;28;20409;-65
2022/12/14 01:06:14;;;;;;;6.65;4.82;;;19.70;34.70;;;;;;5068248;28;20060;-66
2022/12/14 01:08:41;;;;;;;7.75;5.22;;;19.70;34.70;;;;;;5069890;28;20052;-65
2022/12/14 01:11:09;;;;;;;7.28;5.28;;;19.70;34.70;;;;;;5070040;28;20493;-65
2022/12/14 01:13:37;;;;;;;5.90;4.85;;;19.70;34.70;;;;;;5070342;28;20044;-65
2022/12/14 01:16:09;;;;;;;6.97;4.90;;;19.70;34.70;;;;;;5070327;28;20503;-65
2022/12/14 01:18:37;;;;;;;8.27;5.72;;;19.70;34.70;;;;;;5070344;28;20133;-65
2022/12/14 01:21:15;;;;;;;5.95;4.85;;;19.70;34.70;;;;;;5069813;28;20040;-65
2022/12/14 01:23:44;;;;;;;7.28;5.40;;;19.70;34.70;;;;;;5070529;28;20052;-65
2022/12/14 01:26:13;;;;;;;6.00;4.85;;;19.70;34.60;;;;;;5070206;28;20052;-66
2022/12/14 01:28:41;;;;;;;5.68;4.78;;;19.70;34.60;;;;;;5052840;28;20079;-64
2022/12/14 01:31:15;;;;;;;6.45;4.70;;;19.70;34.60;;;;;;5070084;28;20080;-65
2022/12/14 01:33:43;;;;;;;6.97;4.35;;;19.70;34.60;;;;;;5070062;28;20045;-65
2022/12/14 01:36:16;;;;;;;5.90;4.70;;;19.70;34.60;;;;;;5070008;28;20048;-66
2022/12/14 01:38:43;;;;;;;6.25;4.82;;;19.70;34.60;;;;;;5064872;28;20059;-65
2022/12/14 01:41:24;;;;;;;7.65;4.80;;;19.70;34.60;;;;;;5069617;28;20051;-65
2022/12/14 01:43:55;;;;;;;7.78;5.53;;;19.70;34.60;;;;;;5069602;28;20419;-65
2022/12/14 01:46:52;;;;;;;6.35;5.15;;;19.70;34.60;;;;;;5070358;28;20107;-65
2022/12/14 01:49:34;;;;;;;7.88;4.70;;;19.70;34.60;;;;;;5068823;28;20101;-65
2022/12/14 01:52:09;;;;;;;6.40;4.45;;;19.60;35.10;;;;;;5053799;28;20480;-65
2022/12/14 01:54:42;;;;;;;6.80;5.07;;;19.70;34.60;;;;;;5069324;28;20048;-65
2022/12/14 01:57:18;;;;;;;6.05;4.47;;;19.60;34.50;;;;;;5069558;28;20071;-65
2022/12/14 01:59:47;;;;;;;6.25;4.80;;;19.70;34.60;;;;;;5069562;28;20403;-65
2022/12/14 02:02:16;;;;;;;5.88;4.75;;;19.70;34.60;;;;;;5068917;28;20396;-65
2022/12/14 02:04:53;;;;;;;6.00;4.53;;;19.70;34.60;;;;;;5069817;28;20049;-65
2022/12/14 02:07:21;;;;;;;6.40;4.82;;;19.70;34.60;;;;;;5069336;28;20055;-65
2022/12/14 02:09:49;;;;;;;5.22;4.18;;;19.60;34.50;;;;;;5069671;28;20408;-65
2022/12/14 02:12:26;;;;;;;6.55;4.75;;;19.60;34.50;;;;;;5064522;28;20044;-65
2022/12/14 02:14:54;;;;;;;6.68;4.38;;;19.70;34.60;;;;;;5052610;28;20477;-65
2022/12/14 02:17:21;;;;;;;5.80;4.70;;;19.70;34.60;;;;;;5068631;28;20048;-65
2022/12/14 02:19:49;;;;;;;6.22;4.53;;;19.70;34.60;;;;;;5069308;28;20049;-65
2022/12/14 02:22:56;;;;;;;5.93;4.72;;;19.70;34.60;;;;;;5068165;28;20050;-65
2022/12/14 02:25:53;;;;;;;5.95;4.57;;;19.70;34.60;;;;;;5043232;28;20052;-65
2022/12/14 02:29:00;;;;;;;5.45;4.47;;;19.60;34.50;;;;;;5069233;28;20412;-65
2022/12/14 02:31:57;;;;;;;6.43;4.60;;;19.60;34.50;;;;;;5054541;28;20499;-65
2022/12/14 02:34:43;;;;;;;4.40;3.90;;;19.60;34.50;;;;;;5054896;28;20052;-65
2022/12/14 02:37:24;;;;;;;5.88;4.68;;;19.60;34.60;;;;;;5068530;28;20420;-65
2022/12/14 02:40:27;;;;;;;4.82;4.15;;;19.60;34.50;;;;;;5069387;28;20454;-65
2022/12/14 02:43:21;;;;;;;6.28;4.53;;;19.60;34.50;;;;;;5068015;28;20191;-65
2022/12/14 02:45:55;;;;;;;5.60;4.50;;;19.60;34.50;;;;;;5064593;28;20045;-65
2022/12/14 02:48:29;;;;;;;6.10;4.55;;;19.60;34.50;;;;;;5069224;28;20055;-65
2022/12/14 02:51:21;;;;;;;4.80;4.07;;;19.60;35.10;;;;;;5068834;28;20144;-65
2022/12/14 02:54:09;;;;;;;6.32;4.57;;;19.60;34.50;;;;;;5069378;28;20128;-65
2022/12/14 02:56:44;;;;;;;5.18;3.78;;;19.60;34.60;;;;;;5068172;28;20059;-65
2022/12/14 02:59:12;;;;;;;4.82;3.72;;;19.60;34.50;;;;;;5068869;28;20504;-66
2022/12/14 03:01:41;;;;;;;5.82;4.30;;;19.60;34.50;;;;;;5068568;28;20079;-65
2022/12/14 03:04:13;;;;;;;5.15;4.47;;;19.60;34.50;;;;;;5067838;28;20052;-65
2022/12/14 03:07:01;;;;;;;4.85;3.97;;;19.60;34.50;;;;;;5068358;28;20044;-65
2022/12/14 03:09:30;;;;;;;5.40;4.07;;;19.60;34.50;;;;;;5068376;28;20048;-65
2022/12/14 03:12:06;;;;;;;5.65;4.38;;;19.60;34.50;;;;;;5069146;28;20417;-65
2022/12/14 03:14:43;;;;;;;5.88;4.53;;;19.60;34.50;;;;;;5068788;28;20048;-65
2022/12/14 03:17:16;;;;;;;5.90;4.70;;;19.60;34.60;;;;;;5068279;28;20052;-66
2022/12/14 03:19:58;;;;;;;6.50;4.28;;;19.60;34.60;;;;;;5046928;28;20465;-65
2022/12/14 03:22:32;;;;;;;5.90;4.07;;;19.60;34.60;;;;;;5069124;28;20045;-65
2022/12/14 03:25:07;;;;;;;4.75;4.15;;;19.60;34.60;;;;;;5067797;28;20082;-65
2022/12/14 03:27:43;;;;;;;7.25;4.45;;;19.60;34.60;;;;;;5069417;28;20055;-65
2022/12/14 03:30:14;;;;;;;4.40;3.50;;;19.60;34.60;;;;;;5068022;28;20055;-65
2022/12/14 03:33:06;;;;;;;6.43;4.40;;;19.60;34.60;;;;;;5068291;28;20059;-65
2022/12/14 03:35:45;;;;;;;5.57;4.20;;;19.60;34.60;;;;;;5068536;28;20045;-65
2022/12/14 03:38:47;;;;;;;4.72;3.83;;;19.60;34.60;;;;;;5065337;28;20052;-65
2022/12/14 03:41:41;;;;;;;5.90;4.40;;;19.60;34.60;;;;;;5050692;28;20465;-66
2022/12/14 03:44:37;;;;;;;4.63;3.88;;;19.60;34.60;;;;;;5068346;28;20045;-66
2022/12/14 03:47:48;;;;;;;4.80;3.47;;;19.60;34.50;;;;;;5048575;28;20053;-66
2022/12/14 03:50:48;;;;;;;5.85;4.28;;;19.60;34.50;;;;;;5033073;28;20053;-67
2022/12/14 03:53:52;;;;;;;5.70;4.20;;;19.60;34.50;;;;;;5047904;28;20132;-65
2022/12/14 03:56:38;;;;;;;5.18;3.58;;;19.60;34.50;;;;;;5048194;28;20278;-65
2022/12/14 03:59:15;;;;;;;4.93;3.67;;;19.50;34.50;;;;;;5048380;28;20053;-65
2022/12/14 04:01:56;;;;;;;5.40;4.28;;;19.60;34.50;;;;;;5050185;28;20103;-65
2022/12/14 04:04:33;;;;;;;4.90;3.75;;;19.50;34.50;;;;;;5034364;28;20044;-65
2022/12/14 04:07:13;;;;;;;6.68;4.00;;;19.60;34.50;;;;;;5068464;28;20127;-65
2022/12/14 04:09:51;;;;;;;5.10;4.43;;;19.60;34.50;;;;;;5053857;28;20060;-64
2022/12/14 04:21:55;;;;;;;6.10;4.43;;;19.50;34.40;;;;;;5071631;28;20045;-65
2022/12/14 04:27:55;;;;;;;6.45;4.25;;;19.50;34.50;;;;;;5070290;28;20051;-65
2022/12/14 04:30:23;;;;;;;5.43;4.13;;;19.50;34.40;;;;;;5072033;28;20056;-65
2022/12/14 04:33:45;;;;;;;5.35;3.78;;;19.50;34.40;;;;;;5071306;28;20067;-65
2022/12/14 04:35:54;;;;;;;4.03;3.60;;;19.50;34.50;;;;;;5071671;28;20378;-65
2022/12/14 04:38:28;;;;;;;5.88;4.13;;;19.50;34.50;;;;;;5070990;28;20079;-65
2022/12/14 04:40:59;;;;;;;4.25;3.80;;;19.50;34.40;;;;;;5071759;28;20059;-65
2022/12/14 04:43:32;;;;;;;5.38;4.18;;;19.50;34.50;;;;;;5071108;28;20044;-66
2022/12/14 04:46:14;;;;;;;4.88;4.15;;;19.50;34.40;;;;;;5071508;28;20048;-66
2022/12/14 04:48:49;;;;;;;5.32;3.80;;;19.50;34.40;;;;;;5070130;28;20040;-65
2022/12/14 04:51:45;;;;;;;5.40;3.78;;;19.50;34.40;;;;;;5070935;28;20132;-65
2022/12/14 04:54:33;;;;;;;6.25;4.35;;;19.50;34.50;;;;;;5067524;28;20040;-65
2022/12/14 04:57:09;;;;;;;5.38;4.13;;;19.50;34.50;;;;;;5070375;28;20059;-65
2022/12/14 04:59:46;;;;;;;4.90;3.70;;;19.40;34.40;;;;;;5069547;28;20522;-65
2022/12/14 05:02:42;;;;;;;6.20;3.53;;;19.50;34.40;;;;;;5045017;28;20507;-65
2022/12/14 05:05:36;;;;;;;4.43;3.67;;;19.50;34.40;;;;;;5070845;28;20056;-66
2022/12/14 05:08:18;;;;;;;5.13;3.67;;;19.50;34.40;;;;;;5069452;28;20145;-65
2022/12/14 05:11:00;;;;;;;8.00;4.20;;;19.50;34.50;;;;;;5051430;28;20056;-66
2022/12/14 05:13:49;;;;;;;4.65;3.67;;;19.40;34.40;;;;;;5069989;28;20420;-66
2022/12/14 05:16:19;;;;;;;5.07;3.75;;;19.40;34.40;;;;;;5070161;28;20187;-65
2022/12/14 05:18:47;;;;;;;4.68;3.85;;;19.50;34.50;;;;;;5070062;28;20080;-65
2022/12/14 05:24:02;;;;;;;5.85;3.60;;;19.40;34.40;;;;;;5070355;28;20048;-65
2022/12/14 05:26:31;;;;;;;4.60;3.78;;;19.40;34.40;;;;;;5067261;28;20049;-65
2022/12/14 05:28:58;;;;;;;4.13;3.72;;;19.40;34.40;;;;;;5068702;28;20400;-65
2022/12/14 05:31:26;;;;;;;4.20;3.42;;;19.40;34.50;;;;;;5069137;28;20048;-65
2022/12/14 05:33:53;;;;;;;4.40;3.15;;;19.40;34.40;;;;;;5069631;28;20048;-66
2022/12/14 05:36:20;;;;;;;4.20;3.80;;;19.40;34.40;;;;;;5069733;28;20040;-66
2022/12/14 05:38:47;;;;;;;5.90;4.78;;;19.40;34.30;;;;;;5070068;28;20048;-65
2022/12/14 05:41:14;;;;;;;5.53;4.35;;;19.40;34.00;;;;;;5068337;28;20048;-65
2022/12/14 05:43:42;;;;;;;6.00;4.28;;;19.40;34.00;;;;;;5069713;28;20058;-65
2022/12/14 05:46:10;;;;;;;6.55;4.72;;;19.40;34.00;;;;;;5075237;28;20062;-66
2022/12/14 05:48:38;;;;;;;6.85;5.32;;;19.40;34.10;;;;;;5067889;28;20087;-66
2022/12/14 05:51:10;;;;;;;6.57;4.60;;;19.40;34.10;;;;;;5069016;28;20400;-66
2022/12/14 05:53:38;;;;;;;6.28;5.05;;;19.40;34.10;;;;;;5068556;28;20040;-66
2022/12/14 05:56:07;;;;;;;6.53;4.78;;;19.40;34.10;;;;;;5050880;28;20056;-66
2022/12/14 05:58:35;;;;;;;6.10;4.68;;;19.40;34.00;;;;;;5068909;28;20044;-65
2022/12/14 06:01:05;;;;;;;5.18;4.13;;;19.40;34.00;;;;;;5065201;28;20048;-66
2022/12/14 06:03:33;;;;;;;5.38;4.72;;;19.40;33.90;;;;;;5064913;28;20044;-66
2022/12/14 06:06:02;;;;;;;5.75;4.25;;;19.40;33.90;;;;;;5066100;28;20052;-66
2022/12/14 06:08:32;;;;;;;5.13;4.63;;;19.40;33.90;;;;;;5068351;28;20052;-66
2022/12/14 06:11:08;;;;;;;6.30;4.45;;;19.50;33.90;;;;;;5067814;28;20071;-66
2022/12/14 06:13:36;;;;;;;6.60;4.53;;;19.50;33.80;;;;;;5049213;28;20047;-65
2022/12/14 06:16:13;;;;;;;5.78;4.95;;;19.60;33.80;;;;;;5068110;28;20082;-63
2022/12/14 06:18:46;;;;;;;6.78;4.95;;;19.60;33.70;;;;;;5067867;28;20041;-63
2022/12/14 06:21:17;;;;;;;6.85;4.90;;;19.60;33.60;;;;;;5064313;28;20052;-63
2022/12/14 06:23:45;;;;;;;6.22;4.78;;;19.60;33.50;;;;;;5065093;28;20509;-64
2022/12/14 06:26:14;;;;;;;9.85;5.70;;;19.70;33.50;;;;;;5056465;28;20076;-63
2022/12/14 06:28:42;;;;;;;6.80;5.40;;;19.70;33.50;;;;;;5029465;28;20045;-64
2022/12/14 06:31:19;;;;;;;8.60;6.00;;;19.70;33.40;;;;;;5064064;28;20066;-65
2022/12/14 06:33:47;;;;;;;7.03;5.25;;;19.70;33.40;;;;;;5060041;28;20079;-63
2022/12/14 06:36:22;;;;;;;9.68;5.75;;;19.70;33.40;;;;;;5062242;28;20167;-64
2022/12/14 06:38:50;;;;;;;6.15;5.22;;;19.80;33.40;;;;;;5047324;28;20055;-64
2022/12/14 06:41:19;;;;;;;5.90;4.72;;;19.80;33.40;;;;;;5069628;28;20044;-63
2022/12/14 06:43:46;;;;;;;8.07;5.72;;;19.80;33.50;;;;;;5055249;28;20412;-64
2022/12/14 06:46:18;;;;;;;8.45;5.82;;;19.90;33.40;;;;;;5048686;28;20049;-65
2022/12/14 06:48:54;;;;;;;7.20;5.53;;;19.90;33.70;;;;;;5069548;28;20044;-62
2022/12/14 06:51:23;;;;;;;7.95;5.43;;;19.90;34.10;;;;;;5056889;28;20060;-64
2022/12/14 06:53:52;;;;;;;8.77;6.25;;;19.90;34.10;;;;;;5055459;28;20052;-64
2022/12/14 06:56:21;;;;;;;7.73;5.87;;;20.00;34.20;;;;;;5055309;28;20047;-66
2022/12/14 06:58:49;;;;;;;10.10;6.30;;;20.00;34.20;;;;;;5057771;28;20694;-68
2022/12/14 07:01:21;;;;;;;7.47;5.57;;;20.10;34.40;;;;;;5054072;28;20491;-66
2022/12/14 07:03:52;;;;;;;10.10;6.30;;;20.10;34.30;;;;;;5057809;28;20059;-66
2022/12/14 07:06:21;;;;;;;10.02;6.22;;;20.20;34.20;;;;;;5055762;28;20049;-66
2022/12/14 07:08:48;;;;;;;8.48;5.95;;;20.20;34.00;;;;;;5059714;28;20052;-65
2022/12/14 07:11:16;;;;;;;11.00;6.72;;;20.20;33.80;;;;;;5054713;28;20071;-63
2022/12/14 07:13:43;;;;;;;10.75;7.20;;;20.30;33.60;;;;;;5060321;28;20230;-64
2022/12/14 07:16:19;;;;;;;10.35;6.28;;;20.30;33.90;;;;;;5066351;28;20049;-66
2022/12/14 07:18:46;;;;;;;9.88;6.50;;;20.40;34.40;;;;;;5060819;28;20060;-65
2022/12/14 07:21:16;;;;;;;11.55;6.57;;;20.40;34.40;;;;;;5062240;28;20052;-65
2022/12/14 07:23:44;;;;;;;10.10;6.85;;;20.50;34.40;;;;;;5061900;28;20131;-67
2022/12/14 07:26:14;;;;;;;12.52;6.53;;;20.60;34.50;;;;;;5044477;28;20055;-66
2022/12/14 07:28:44;;;;;;;12.40;7.75;;;20.60;34.40;;;;;;5075616;28;20068;-65
2022/12/14 07:31:15;;;;;;;10.80;7.90;;;20.70;34.10;;;;;;5045385;28;20056;-64
2022/12/14 07:33:43;;;;;;;11.00;7.90;;;20.70;33.80;;;;;;5060161;28;20037;-64
2022/12/14 07:36:15;;;;;;;9.02;6.78;;;20.70;33.70;;;;;;5047628;28;20071;-65
2022/12/14 07:38:45;;;;;;;9.35;6.63;;;20.80;33.60;;;;;;5065874;28;20048;-63
2022/12/14 07:41:20;;;;;;;10.48;6.63;;;20.80;33.40;;;;;;5067929;28;20237;-66
2022/12/14 07:43:52;;;;;;;14.00;7.40;;;20.80;33.30;;;;;;5062507;28;20131;-65
2022/12/14 07:46:23;;;;;;;10.88;7.05;;;20.90;33.20;;;;;;5046429;28;20048;-65
2022/12/14 07:48:52;;;;;;;8.88;6.50;;;20.90;33.20;;;;;;5060081;28;20229;-66
2022/12/14 07:51:26;;;;;;;9.40;6.07;;;20.90;33.00;;;;;;5064472;28;21770;-63
2022/12/14 07:53:54;;;;;;;11.23;6.90;;;21.00;33.30;;;;;;5066361;28;20433;-63
2022/12/14 07:56:27;;;;;;;9.02;6.25;;;21.00;33.30;;;;;;5081514;28;20106;-65
2022/12/14 07:58:57;;;;;;;10.13;6.82;;;21.10;33.70;;;;;;5065538;28;20481;-66
2022/12/14 08:01:27;;;;;;;11.95;7.82;;;21.10;33.70;;;;;;5064208;28;20044;-63
2022/12/14 08:04:12;;;;;;;9.48;6.53;;;21.20;33.80;;;;;;5076091;28;20059;-61
2022/12/14 08:06:40;;;;;;;8.85;6.50;;;21.20;33.70;;;;;;5061450;28;20044;-61
2022/12/14 08:09:10;;;;;;;9.77;7.15;;;21.20;33.70;;;;;;5062533;28;20045;-64
2022/12/14 08:11:38;;;;;;;13.10;7.25;;;21.30;33.90;;;;;;5062476;28;20053;-66
2022/12/14 08:14:10;;;;;;;10.50;6.45;;;21.30;33.90;;;;;;5063710;28;20048;-63
2022/12/14 08:16:38;;;;;;;10.32;6.57;;;21.40;33.90;;;;;;5062761;28;20052;-66
2022/12/14 08:19:04;;;;;;;9.40;6.82;;;21.40;33.50;;;;;;5063788;28;20052;-65
2022/12/14 08:21:32;;;;;;;16.55;7.90;;;21.40;33.40;;;;;;5063402;28;20056;-65
2022/12/14 08:23:59;;;;;;;9.82;6.95;;;21.40;33.30;;;;;;5060849;28;20041;-65
2022/12/14 08:26:26;;;;;;;9.88;6.72;;;21.50;33.10;;;;;;5060686;28;20078;-63
2022/12/14 08:29:02;;;;;;;8.55;6.40;;;21.50;32.90;;;;;;5062315;28;20413;-65
2022/12/14 08:31:30;;;;;;;8.50;6.53;;;21.50;32.90;;;;;;5061217;28;20056;-65
2022/12/14 08:33:59;;;;;;;9.43;6.93;;;21.50;32.80;;;;;;5062660;28;20056;-63
2022/12/14 08:36:29;;;;;;;11.82;6.82;;;21.60;32.80;;;;;;5062843;28;20123;-64
2022/12/14 08:39:04;;;;;;;16.25;7.57;;;21.60;32.80;;;;;;5045738;28;20058;-67
2022/12/14 08:41:31;;;;;;;11.27;6.30;;;21.60;32.70;;;;;;5061094;28;20143;-68
2022/12/14 08:44:00;;;;;;;9.88;6.65;;;21.60;32.60;;;;;;5064416;28;20049;-63
2022/12/14 08:46:29;;;;;;;10.32;6.72;;;21.70;32.50;;;;;;5073901;28;20044;-67
2022/12/14 08:48:56;;;;;;;8.00;5.80;;;21.70;32.60;;;;;;5061545;28;20048;-66
2022/12/14 08:51:25;;;;;;;7.95;6.35;;;21.70;32.50;;;;;;5058157;28;20067;-66
2022/12/14 08:53:53;;;;;;;8.15;6.20;;;21.70;32.30;;;;;;5062054;28;20047;-69
2022/12/14 08:56:24;;;;;;;8.18;6.22;;;21.70;32.30;;;;;;5047641;28;20060;-67
2022/12/14 08:58:51;;;;;;;9.50;6.45;;;21.80;32.30;;;;;;5059870;28;20404;-65
2022/12/14 09:01:27;;;;;;;9.43;6.90;;;21.80;32.30;;;;;;5056674;28;20044;-69
2022/12/14 09:04:04;;;;;;;10.23;6.20;;;21.80;32.30;;;;;;5058990;28;20044;-69
2022/12/14 09:06:34;;;;;;;8.15;6.18;;;21.90;32.30;;;;;;5056243;28;20084;-66
2022/12/14 09:09:01;;;;;;;9.77;6.10;;;21.90;32.30;;;;;;5057897;28;20525;-66
2022/12/14 09:11:28;;;;;;;10.20;6.40;;;21.90;32.20;;;;;;5046170;28;20048;-67
2022/12/14 09:13:55;;;;;;;11.07;6.88;;;21.90;32.00;;;;;;5063064;28;20106;-67
2022/12/14 09:16:25;;;;;;;12.20;6.72;;;22.00;32.00;;;;;;5063549;28;20048;-68
2022/12/14 09:18:52;;;;;;;9.50;7.00;;;22.00;31.90;;;;;;5025097;28;20504;-67
2022/12/14 09:21:20;;;;;;;8.20;6.53;;;22.00;31.80;;;;;;5058354;28;20408;-66
2022/12/14 09:23:47;;;;;;;12.50;6.50;;;22.00;31.80;;;;;;5059686;28;20048;-67
2022/12/14 09:26:23;;;;;;;9.57;6.85;;;22.10;31.80;;;;;;5056020;28;20052;-68
2022/12/14 09:28:52;;;;;;;10.02;6.38;;;22.10;31.80;;;;;;5062765;28;20048;-66
2022/12/14 09:31:21;;;;;;;10.27;7.18;;;22.10;31.90;;;;;;5064660;28;20056;-68
2022/12/14 09:33:49;;;;;;;7.75;6.40;;;22.20;31.80;;;;;;5060776;28;20044;-69
2022/12/14 09:36:18;;;;;;;10.90;6.70;;;22.20;31.60;;;;;;5065769;28;20055;-68
2022/12/14 09:38:48;;;;;;;10.27;6.78;;;22.20;31.50;;;;;;5063444;28;20428;-68
2022/12/14 09:41:46;;;;;;;8.45;6.47;;;22.20;31.50;;;;;;5060149;28;20725;-67
2022/12/14 09:44:56;;;;;;;8.77;6.35;;;22.30;31.40;;;;;;5059286;28;20048;-67
2022/12/14 09:47:42;;;;;;;8.77;7.00;;;22.30;31.40;;;;;;5067602;28;20106;-67
2022/12/14 09:50:16;;;;;;;7.05;5.95;;;22.30;31.40;;;;;;5065367;28;20068;-66
2022/12/14 09:52:52;;;;;;;8.90;6.63;;;22.40;31.40;;;;;;5056511;28;20040;-66
2022/12/14 09:55:43;;;;;;;8.18;6.57;;;22.40;31.30;;;;;;5050945;28;20063;-68
2022/12/14 09:58:27;;;;;;;11.77;7.25;;;22.40;31.30;;;;;;5051770;28;20036;-62
2022/12/14 10:01:21;;;;;;;11.45;6.57;;;22.40;31.30;;;;;;5054722;28;20074;-62
2022/12/14 10:04:18;;;;;;;9.25;6.07;;;22.50;31.40;;;;;;5055633;28;20135;-62
2022/12/14 10:07:08;;;;;;;8.63;6.65;;;22.50;31.40;;;;;;5044000;28;20138;-62
2022/12/14 10:09:47;;;;;;;7.97;6.10;;;22.40;31.40;;;;;;5058021;28;20044;-62
2022/12/14 10:12:44;;;;;;;10.98;6.20;;;22.40;31.40;;;;;;5059755;28;20045;-61
2022/12/14 10:15:51;;;;;;;9.70;6.72;;;22.50;31.40;;;;;;5056600;28;20486;-60
2022/12/14 10:18:55;;;;;;;14.82;8.40;;;22.40;31.30;;;;;;5058673;28;20049;-62
2022/12/14 10:21:40;;;;;;;11.48;7.65;;;22.40;31.20;;;;;;5062959;28;20131;-61
2022/12/14 10:24:18;;;;;;;12.95;7.78;;;22.40;31.20;;;;;;5043840;28;20048;-67
2022/12/14 10:26:53;;;;;;;12.05;8.02;;;22.40;31.20;;;;;;5027747;28;20052;-65
2022/12/14 10:29:36;;;;;;;10.02;6.95;;;22.50;31.20;;;;;;5040019;28;20485;-68
2022/12/14 10:32:24;;;;;;;11.70;7.55;;;22.50;31.20;;;;;;5061826;28;20496;-66
2022/12/14 10:34:51;;;;;;;10.50;7.40;;;22.50;31.10;;;;;;5060068;28;20045;-67
2022/12/14 10:37:34;;;;;;;12.43;7.57;;;22.50;31.20;;;;;;5056941;28;20090;-62
2022/12/14 10:40:16;;;;;;;12.23;7.20;;;22.50;31.10;;;;;;5062193;28;20048;-68
2022/12/14 10:43:35;;;;;;;12.25;7.63;;;22.50;31.10;;;;;;5060214;28;20056;-63
2022/12/14 10:46:32;;;;;;;10.00;7.10;;;22.50;31.20;;;;;;5059364;28;20080;-67
2022/12/14 10:49:20;;;;;;;12.35;6.93;;;22.60;31.60;;;;;;5061902;28;20056;-63
2022/12/14 10:51:54;;;;;;;10.10;6.88;;;22.60;31.90;;;;;;5059482;28;20041;-67
2022/12/14 10:54:43;;;;;;;13.70;7.32;;;22.60;31.90;;;;;;5065347;28;20037;-67
2022/12/14 10:57:25;;;;;;;10.63;6.90;;;22.70;32.00;;;;;;5062023;28;20512;-66
2022/12/14 10:59:54;;;;;;;12.32;8.13;;;22.70;32.00;;;;;;5039130;28;20045;-69
2022/12/14 11:02:48;;;;;;;14.63;8.20;;;22.70;31.80;;;;;;5063178;28;20052;-69
2022/12/14 11:05:36;;;;;;;10.63;7.65;;;22.80;31.50;;;;;;5064682;28;20392;-66
2022/12/14 11:08:08;;;;;;;12.25;8.30;;;22.80;31.40;;;;;;5062322;28;20084;-74
2022/12/14 11:10:38;;;;;;;13.95;7.53;;;22.80;31.30;;;;;;5067045;28;20132;-66
2022/12/14 11:13:20;;;;;;;10.77;8.00;;;22.90;31.20;;;;;;5067514;28;20096;-64
2022/12/14 11:15:51;;;;;;;15.85;8.38;;;22.90;31.20;;;;;;5061835;28;20059;-68
2022/12/14 11:18:29;;;;;;;12.35;7.47;;;22.90;31.00;;;;;;5064699;28;20055;-69
2022/12/14 11:21:00;;;;;;;12.27;7.60;;;23.00;30.90;;;;;;5068407;28;20407;-67
2022/12/14 11:23:38;;;;;;;;;;;23.00;30.90;;;;;;5071998;28;20059;-66
2022/12/14 11:26:25;;;;;;;13.00;8.43;;;23.00;30.70;;;;;;5082930;28;19920;-75
2022/12/14 11:28:55;;;;;;;11.63;7.97;;;23.00;30.70;;;;;;5067982;28;20055;-68
2022/12/14 11:31:36;;;;;;;11.23;7.43;;;23.00;30.70;;;;;;5065406;28;20376;-67
2022/12/14 11:34:05;;;;;;;13.75;8.02;;;23.10;30.60;;;;;;5060843;28;20308;-69
2022/12/14 11:36:39;;;;;;;12.95;7.85;;;23.10;30.50;;;;;;5064717;28;20500;-69
2022/12/14 11:39:21;;;;;;;12.45;7.53;;;23.10;31.00;;;;;;5065764;28;20059;-67
2022/12/14 11:41:58;;;;;;;13.10;7.72;;;23.10;30.30;;;;;;5066031;28;20523;-67
2022/12/14 11:44:34;;;;;;;10.18;7.60;;;23.20;30.40;;;;;;5067206;28;20048;-67
2022/12/14 11:47:11;;;;;;;11.05;7.50;;;23.10;30.20;;;;;;5061117;28;20531;-63
2022/12/14 11:49:53;;;;;;;11.88;7.40;;;23.20;30.30;;;;;;5062479;28;20040;-68
2022/12/14 11:52:41;;;;;;;11.52;8.77;;;23.20;30.30;;;;;;5066508;28;20135;-67
2022/12/14 11:55:14;;;;;;;12.73;8.20;;;23.10;30.30;;;;;;5063927;28;20518;-67
2022/12/14 11:57:58;;;;;;;10.52;7.65;;;23.20;30.40;;;;;;5065079;28;20480;-67
2022/12/14 12:00:41;;;;;;;12.15;7.88;;;23.20;30.50;;;;;;5065748;28;20066;-67
2022/12/14 12:03:22;;;;;;;11.13;8.20;;;23.10;30.50;;;;;;5061925;28;20048;-61
2022/12/14 12:05:50;;;;;;;11.35;8.02;;;23.10;30.50;;;;;;5066942;28;20040;-69
2022/12/14 12:08:25;;;;;;;10.43;8.00;;;23.10;30.50;;;;;;5066656;28;20049;-67
2022/12/14 12:10:57;;;;;;;11.13;7.22;;;23.10;30.70;;;;;;5044135;28;20131;-69
2022/12/14 12:13:36;;;;;;;11.43;7.97;;;23.10;31.10;;;;;;5066741;28;20217;-65
2022/12/14 12:16:12;;;;;;;11.52;8.10;;;23.10;31.50;;;;;;5038784;28;20476;-68
2022/12/14 12:18:49;;;;;;;11.27;7.32;;;23.10;31.50;;;;;;5046112;28;20057;-66
2022/12/14 12:21:29;;;;;;;8.57;6.82;;;23.10;31.70;;;;;;5063874;28;20259;-65
2022/12/14 12:24:12;;;;;;;10.02;7.40;;;23.10;31.70;;;;;;5062443;28;20053;-66
2022/12/14 12:26:55;;;;;;;9.55;6.97;;;23.20;31.70;;;;;;5055451;28;20045;-66
2022/12/14 12:29:47;;;;;;;9.85;7.25;;;23.20;31.80;;;;;;5073103;28;20041;-65
2022/12/14 12:32:45;;;;;;;12.88;7.45;;;23.20;31.80;;;;;;5065444;28;20048;-67
2022/12/14 12:35:36;;;;;;;14.13;7.13;;;23.20;31.80;;;;;;5063180;28;20135;-65
2022/12/14 12:38:17;;;;;;;9.65;7.15;;;23.20;31.80;;;;;;5061822;28;20060;-64
2022/12/14 12:41:13;;;;;;;11.57;7.63;;;23.20;31.80;;;;;;5065594;28;20079;-66
2022/12/14 12:43:47;;;;;;;11.48;6.95;;;23.30;31.90;;;;;;5065803;28;20045;-69
2022/12/14 12:46:26;;;;;;;10.05;6.60;;;23.30;31.80;;;;;;5067516;28;20156;-70
2022/12/14 12:49:05;;;;;;;9.70;7.15;;;23.30;31.90;;;;;;5061500;28;20052;-66
2022/12/14 12:51:48;;;;;;;9.00;6.85;;;23.30;32.10;;;;;;5062274;28;20059;-64
2022/12/14 12:54:31;;;;;;;10.05;7.88;;;23.30;32.10;;;;;;5066098;28;20055;-61
2022/12/14 12:57:01;;;;;;;10.38;6.90;;;23.30;31.90;;;;;;5047414;28;20488;-65
2022/12/14 12:59:48;;;;;;;9.18;6.70;;;23.30;31.80;;;;;;5054134;28;20049;-65
2022/12/14 13:02:51;;;;;;;10.82;7.13;;;23.30;32.30;;;;;;5044567;28;20056;-70
2022/12/14 13:05:22;;;;;;;9.35;7.30;;;23.30;31.60;;;;;;5058744;28;20044;-64
2022/12/14 13:08:24;;;;;;;11.38;7.72;;;23.30;31.60;;;;;;5062894;28;20072;-65
2022/12/14 13:10:54;;;;;;;9.90;7.40;;;23.30;31.70;;;;;;5064711;28;20044;-64
2022/12/14 13:13:49;;;;;;;9.65;7.15;;;23.20;32.30;;;;;;5064522;28;20044;-63
2022/12/14 13:16:24;;;;;;;10.77;7.55;;;23.20;31.80;;;;;;5068819;28;20416;-62
2022/12/14 13:19:01;;;;;;;11.40;7.35;;;23.20;31.90;;;;;;5068670;28;20051;-63
2022/12/14 13:21:52;;;;;;;12.50;7.63;;;23.20;31.90;;;;;;5067553;28;20052;-67
2022/12/14 13:24:22;;;;;;;15.32;7.68;;;23.20;31.90;;;;;;5049378;28;20104;-68
2022/12/14 13:27:17;;;;;;;17.08;8.73;;;23.20;31.80;;;;;;5068034;28;20052;-68
2022/12/14 13:30:13;;;;;;;11.27;7.80;;;23.20;31.80;;;;;;5064338;28;20043;-67
2022/12/14 13:33:20;;;;;;;14.93;8.65;;;23.20;31.90;;;;;;5061609;28;20052;-64
2022/12/14 13:36:27;;;;;;;10.45;6.63;;;23.20;32.10;;;;;;5064219;28;20145;-66
2022/12/14 13:39:30;;;;;;;13.07;7.38;;;23.20;32.00;;;;;;5072121;28;20552;-65
2022/12/14 13:42:26;;;;;;;17.35;7.47;;;23.20;32.00;;;;;;5062688;28;20049;-66
2022/12/14 13:45:00;;;;;;;11.73;6.45;;;23.20;32.00;;;;;;5064120;28;20077;-64
2022/12/14 13:47:37;;;;;;;11.43;7.35;;;23.20;32.00;;;;;;5064155;28;20554;-62